createdAt,value
2017-09-26T00:00:23.104Z,10.07
2017-09-26T00:02:51.500Z,11.07
2017-09-26T00:05:19.124Z,9.97
2017-09-26T00:07:46.784Z,10.87
2017-09-26T00:10:14.403Z,11.43
2017-09-26T00:12:42.038Z,10.40
2017-09-26T00:15:09.700Z,10.80
2017-09-26T00:17:37.346Z,10.17
2017-09-26T00:20:05.736Z,10.17
2017-09-26T00:22:34.154Z,9.33
2017-09-26T00:25:01.768Z,9.93
2017-09-26T00:27:30.182Z,10.23
2017-09-26T00:29:57.843Z,10.37
2017-09-26T00:32:25.493Z,10.10
2017-09-26T00:34:53.114Z,9.37
2017-09-26T00:37:20.776Z,12.17
2017-09-26T00:39:48.404Z,11.70
2017-09-26T00:42:16.049Z,12.80
2017-09-26T00:44:43.680Z,10.90
2017-09-26T00:47:12.044Z,11.50
2017-09-26T00:49:39.645Z,11.87
2017-09-26T00:52:07.284Z,11.03
2017-09-26T00:54:35.655Z,12.07
2017-09-26T00:57:04.021Z,11.37
2017-09-26T00:59:31.655Z,12.80
2017-09-26T01:01:59.253Z,12.20
2017-09-26T01:04:27.609Z,11.10
2017-09-26T01:06:56.058Z,12.60
2017-09-26T01:09:23.665Z,12.97
2017-09-26T01:11:51.265Z,13.10
2017-09-26T01:14:18.896Z,12.70
2017-09-26T01:16:47.264Z,13.73
2017-09-26T01:19:14.875Z,12.37
2017-09-26T01:21:42.507Z,12.80
2017-09-26T01:24:10.869Z,12.53
2017-09-26T01:26:39.228Z,11.87
2017-09-26T01:29:06.858Z,12.10
2017-09-26T01:31:34.449Z,12.90
2017-09-26T01:34:02.067Z,13.47
2017-09-26T01:36:29.692Z,13.30
2017-09-26T01:38:58.048Z,13.60
2017-09-26T01:44:00.485Z,12.40
2017-09-26T01:46:28.077Z,13.00
2017-09-26T01:48:55.679Z,13.70
2017-09-26T01:51:24.085Z,13.43
2017-09-26T01:53:51.681Z,14.57
2017-09-26T01:56:19.319Z,13.30
2017-09-26T01:59:02.699Z,13.77
2017-09-26T02:01:30.331Z,13.30
2017-09-26T02:03:57.936Z,13.70
2017-09-26T02:06:25.552Z,14.40
2017-09-26T02:08:53.176Z,13.07
2017-09-26T02:11:20.774Z,14.43
2017-09-26T02:13:48.409Z,11.60
2017-09-26T02:16:16.017Z,14.10
2017-09-26T02:18:43.645Z,14.03
2017-09-26T02:21:11.240Z,14.83
2017-09-26T02:23:38.863Z,15.33
2017-09-26T02:26:06.460Z,13.10
2017-09-26T02:28:34.089Z,13.40
2017-09-26T02:31:01.690Z,14.17
2017-09-26T02:33:29.324Z,14.47
2017-09-26T02:35:56.921Z,13.20
2017-09-26T02:38:25.321Z,14.93
2017-09-26T02:40:52.932Z,13.70
2017-09-26T02:43:20.530Z,10.40
2017-09-26T02:45:48.935Z,12.23
2017-09-26T02:48:16.536Z,13.37
2017-09-26T02:50:44.141Z,15.10
2017-09-26T02:53:11.787Z,14.20
2017-09-26T02:55:40.160Z,14.40
2017-09-26T02:58:07.794Z,15.17
2017-09-26T03:00:36.164Z,14.47
2017-09-26T03:03:03.792Z,15.30
2017-09-26T03:05:31.396Z,13.50
2017-09-26T03:07:59.019Z,14.00
2017-09-26T03:10:26.621Z,12.13
2017-09-26T03:12:54.283Z,16.90
2017-09-26T03:15:21.914Z,14.87
2017-09-26T03:17:49.509Z,15.50
2017-09-26T03:20:17.142Z,13.50
2017-09-26T03:22:44.745Z,15.50
2017-09-26T03:25:12.368Z,15.30
2017-09-26T03:27:39.972Z,16.50
2017-09-26T03:30:08.373Z,16.17
2017-09-26T03:32:35.988Z,15.47
2017-09-26T03:35:03.608Z,14.53
2017-09-26T03:37:31.217Z,14.30
2017-09-26T03:39:58.852Z,16.83
2017-09-26T03:42:26.451Z,15.20
2017-09-26T03:44:54.069Z,15.00
2017-09-26T03:47:21.688Z,15.90
2017-09-26T03:49:50.048Z,15.57
2017-09-26T03:52:17.706Z,16.50
2017-09-26T03:54:45.313Z,15.90
2017-09-26T03:57:12.915Z,16.50
2017-09-26T03:59:40.571Z,13.90
2017-09-26T04:02:08.169Z,16.43
2017-09-26T04:04:36.568Z,16.50
2017-09-26T04:07:04.164Z,16.50
2017-09-26T04:09:31.779Z,16.10
2017-09-26T04:11:59.377Z,18.80
2017-09-26T04:14:27.000Z,17.70
2017-09-26T04:16:54.597Z,17.40
2017-09-26T04:19:22.224Z,18.17
2017-09-26T04:21:49.832Z,17.93
2017-09-26T04:24:17.434Z,17.40
2017-09-26T04:26:45.820Z,14.20
2017-09-26T04:29:14.189Z,18.00
2017-09-26T04:31:42.592Z,17.37
2017-09-26T04:34:10.189Z,17.77
2017-09-26T04:36:37.828Z,17.97
2017-09-26T04:39:05.422Z,16.73
2017-09-26T04:41:33.021Z,17.50
2017-09-26T04:44:00.648Z,16.87
2017-09-26T04:46:28.273Z,16.93
2017-09-26T04:48:55.900Z,16.50
2017-09-26T04:51:24.266Z,15.60
2017-09-26T04:53:52.666Z,17.50
2017-09-26T04:56:20.281Z,17.77
2017-09-26T04:58:47.908Z,18.43
2017-09-26T05:01:15.497Z,17.77
2017-09-26T05:03:43.090Z,14.40
2017-09-26T05:06:11.480Z,17.57
2017-09-26T05:08:39.836Z,17.97
2017-09-26T05:11:07.459Z,15.80
2017-09-26T05:13:35.058Z,19.37
2017-09-26T05:16:02.655Z,12.43
2017-09-26T05:18:30.292Z,18.90
2017-09-26T05:20:58.652Z,17.50
2017-09-26T05:23:26.249Z,20.00
2017-09-26T05:25:53.872Z,16.10
2017-09-26T05:28:22.983Z,17.57
2017-09-26T05:30:51.383Z,19.90
2017-09-26T05:33:18.984Z,20.10
2017-09-26T05:35:46.577Z,15.50
2017-09-26T05:38:14.196Z,16.70
2017-09-26T05:40:41.788Z,21.27
2017-09-26T05:43:09.429Z,18.80
2017-09-26T05:45:37.029Z,19.50
2017-09-26T05:48:05.400Z,20.30
2017-09-26T05:50:33.046Z,21.10
2017-09-26T05:53:00.661Z,13.73
2017-09-26T05:55:28.266Z,18.23
2017-09-26T05:57:55.884Z,17.17
2017-09-26T06:00:23.495Z,13.23
2017-09-26T06:02:51.122Z,18.43
2017-09-26T06:05:18.713Z,15.93
2017-09-26T06:07:46.320Z,20.23
2017-09-26T06:10:13.964Z,19.10
2017-09-26T06:12:42.324Z,16.30
2017-09-26T06:15:09.958Z,17.10
2017-09-26T06:17:37.556Z,19.10
2017-09-26T06:20:05.974Z,19.80
2017-09-26T06:22:33.576Z,17.00
2017-09-26T06:25:01.206Z,20.87
2017-09-26T06:27:28.805Z,20.10
2017-09-26T06:29:57.182Z,21.33
2017-09-26T06:32:24.801Z,21.10
2017-09-26T06:34:52.404Z,19.27
2017-09-26T06:37:20.024Z,21.40
2017-09-26T06:39:47.624Z,18.77
2017-09-26T06:42:15.258Z,20.40
2017-09-26T06:44:42.857Z,18.37
2017-09-26T06:47:11.221Z,19.07
2017-09-26T06:49:38.844Z,20.20
2017-09-26T06:52:06.445Z,16.40
2017-09-26T06:54:34.082Z,20.77
2017-09-26T06:57:01.681Z,15.30
2017-09-26T06:59:30.040Z,19.13
2017-09-26T07:01:57.665Z,18.77
2017-09-26T07:04:25.248Z,18.10
2017-09-26T07:06:52.864Z,18.30
2017-09-26T07:09:20.533Z,20.33
2017-09-26T07:11:48.172Z,20.43
2017-09-26T07:14:16.532Z,19.93
2017-09-26T07:16:44.137Z,17.30
2017-09-26T07:19:11.777Z,15.80
2017-09-26T07:21:40.144Z,18.63
2017-09-26T07:24:08.504Z,20.30
2017-09-26T07:26:37.638Z,20.40
2017-09-26T07:29:05.241Z,20.33
2017-09-26T07:31:32.881Z,20.23
2017-09-26T07:34:00.476Z,17.83
2017-09-26T07:36:28.077Z,19.67
2017-09-26T07:38:55.716Z,19.87
2017-09-26T07:41:24.084Z,21.53
2017-09-26T07:43:51.679Z,20.67
2017-09-26T07:46:19.300Z,20.37
2017-09-26T07:48:46.900Z,20.87
2017-09-26T07:51:14.536Z,22.00
2017-09-26T07:53:42.935Z,20.43
2017-09-26T07:56:10.532Z,19.27
2017-09-26T07:58:38.148Z,23.80
2017-09-26T08:01:07.286Z,21.23
2017-09-26T08:03:35.495Z,20.57
2017-09-26T08:06:03.530Z,19.60
2017-09-26T08:08:32.007Z,19.20
2017-09-26T08:10:59.633Z,19.50
2017-09-26T08:13:27.997Z,18.60
2017-09-26T08:15:55.647Z,17.90
2017-09-26T08:18:23.249Z,17.07
2017-09-26T08:20:50.849Z,22.20
2017-09-26T08:23:18.474Z,23.00
2017-09-26T08:25:46.071Z,22.97
2017-09-26T08:28:13.708Z,25.50
2017-09-26T08:30:41.496Z,22.40
2017-09-26T08:33:09.096Z,19.97
2017-09-26T08:35:39.408Z,20.50
2017-09-26T08:38:07.888Z,16.40
2017-09-26T08:40:36.303Z,16.97
2017-09-26T08:43:03.898Z,22.27
2017-09-26T08:45:31.497Z,20.23
2017-09-26T08:47:59.972Z,17.90
2017-09-26T08:50:27.598Z,18.30
2017-09-26T08:52:55.217Z,21.20
2017-09-26T08:55:22.882Z,21.53
2017-09-26T08:57:50.483Z,18.77
2017-09-26T09:00:18.852Z,21.50
2017-09-26T09:02:46.480Z,20.07
2017-09-26T09:05:14.089Z,22.27
2017-09-26T09:07:41.694Z,19.80
2017-09-26T09:10:10.085Z,20.43
2017-09-26T09:12:37.685Z,21.27
2017-09-26T09:15:05.317Z,17.63
2017-09-26T09:17:32.924Z,20.37
2017-09-26T09:20:00.544Z,18.70
2017-09-26T09:22:28.165Z,21.17
2017-09-26T09:24:56.529Z,19.80
2017-09-26T09:27:24.220Z,22.43
2017-09-26T09:29:52.590Z,21.97
2017-09-26T09:32:20.964Z,22.00
2017-09-26T09:34:49.384Z,22.43
2017-09-26T09:37:17.065Z,23.67
2017-09-26T09:39:44.748Z,18.33
2017-09-26T09:42:12.578Z,22.40
2017-09-26T09:44:40.180Z,24.53
2017-09-26T09:47:07.815Z,24.57
2017-09-26T09:49:35.412Z,17.60
2017-09-26T09:52:03.781Z,20.97
2017-09-26T09:54:31.421Z,21.90
2017-09-26T09:56:59.008Z,22.97
2017-09-26T09:59:26.632Z,25.30
2017-09-26T10:01:54.264Z,19.10
2017-09-26T10:04:21.870Z,19.67
2017-09-26T10:06:49.477Z,20.77
2017-09-26T10:09:17.116Z,19.60
2017-09-26T10:11:45.479Z,21.13
2017-09-26T10:14:13.100Z,22.83
2017-09-26T10:16:40.697Z,19.30
2017-09-26T10:19:08.304Z,22.00
2017-09-26T10:21:35.936Z,19.53
2017-09-26T10:24:04.305Z,21.30
2017-09-26T10:26:31.915Z,22.67
2017-09-26T10:28:59.572Z,23.33
2017-09-26T10:31:27.168Z,21.90
2017-09-26T10:33:54.800Z,21.50
2017-09-26T10:36:22.389Z,22.30
2017-09-26T10:38:50.757Z,21.23
2017-09-26T10:41:18.520Z,20.47
2017-09-26T10:43:46.115Z,21.13
2017-09-26T10:46:13.738Z,21.17
2017-09-26T10:48:41.413Z,20.03
2017-09-26T10:51:09.009Z,24.10
2017-09-26T10:53:37.373Z,22.80
2017-09-26T10:56:05.761Z,20.80
2017-09-26T10:58:33.593Z,23.30
2017-09-26T11:01:01.472Z,22.20
2017-09-26T11:03:29.358Z,23.67
2017-09-26T11:05:57.205Z,21.67
2017-09-26T11:08:25.079Z,20.83
2017-09-26T11:10:52.837Z,21.73
2017-09-26T11:13:20.606Z,22.50
2017-09-26T11:15:48.605Z,22.60
2017-09-26T11:18:17.111Z,23.30
2017-09-26T11:20:44.935Z,23.90
2017-09-26T11:23:12.596Z,20.80
2017-09-26T11:25:40.372Z,20.80
2017-09-26T11:28:08.826Z,21.80
2017-09-26T11:30:36.696Z,19.13
2017-09-26T11:33:04.922Z,19.23
2017-09-26T11:35:33.550Z,17.77
2017-09-26T11:38:01.413Z,19.17
2017-09-26T11:40:29.218Z,22.10
2017-09-26T11:42:57.597Z,19.47
2017-09-26T11:45:26.043Z,22.20
2017-09-26T11:47:54.207Z,19.00
2017-09-26T11:50:21.899Z,17.53
2017-09-26T11:52:49.602Z,18.00
2017-09-26T11:55:17.480Z,19.60
2017-09-26T11:57:45.099Z,17.53
2017-09-26T12:00:13.421Z,19.97
2017-09-26T12:02:41.075Z,20.40
2017-09-26T12:05:08.774Z,17.53
2017-09-26T12:07:37.269Z,17.27
2017-09-26T12:10:05.666Z,19.77
2017-09-26T12:12:34.165Z,16.50
2017-09-26T12:15:01.986Z,18.97
2017-09-26T12:17:29.616Z,19.87
2017-09-26T12:19:57.516Z,18.63
2017-09-26T12:22:26.047Z,16.07
2017-09-26T12:24:53.715Z,18.67
2017-09-26T12:27:21.412Z,16.87
2017-09-26T12:29:49.051Z,19.00
2017-09-26T12:32:16.907Z,17.30
2017-09-26T12:34:44.628Z,18.90
2017-09-26T12:37:12.341Z,19.60
2017-09-26T12:39:39.958Z,17.23
2017-09-26T12:42:07.700Z,18.60
2017-09-26T12:44:35.373Z,17.93
2017-09-26T12:47:03.056Z,20.37
2017-09-26T12:49:31.512Z,20.17
2017-09-26T12:51:59.248Z,17.17
2017-09-26T12:54:26.904Z,18.00
2017-09-26T12:56:54.558Z,21.00
2017-09-26T12:59:22.214Z,16.97
2017-09-26T13:01:49.962Z,19.60
2017-09-26T13:04:17.620Z,19.77
2017-09-26T13:06:45.269Z,16.07
2017-09-26T13:09:13.839Z,16.20
2017-09-26T13:11:42.205Z,17.53
2017-09-26T13:14:09.834Z,15.40
2017-09-26T13:16:37.436Z,16.70
2017-09-26T13:19:05.036Z,17.60
2017-09-26T13:21:32.697Z,18.70
2017-09-26T13:24:00.293Z,17.50
2017-09-26T13:26:27.898Z,17.00
2017-09-26T13:28:55.540Z,19.80
2017-09-26T13:31:23.138Z,17.00
2017-09-26T13:33:50.754Z,15.70
2017-09-26T13:36:18.389Z,17.87
2017-09-26T13:38:45.995Z,19.87
2017-09-26T13:41:14.376Z,19.63
2017-09-26T13:43:42.773Z,17.90
2017-09-26T13:46:10.401Z,19.43
2017-09-26T13:48:38.061Z,20.13
2017-09-26T13:51:05.686Z,19.87
2017-09-26T13:53:33.303Z,19.20
2017-09-26T13:56:01.693Z,18.83
2017-09-26T13:58:29.310Z,18.13
2017-09-26T14:00:56.910Z,16.70
2017-09-26T14:03:25.315Z,17.60
2017-09-26T14:05:52.921Z,17.47
2017-09-26T14:08:20.536Z,18.70
2017-09-26T14:10:48.170Z,17.83
2017-09-26T14:13:15.775Z,17.13
2017-09-26T14:15:43.381Z,19.27
2017-09-26T14:18:11.016Z,19.30
2017-09-26T14:20:38.620Z,20.23
2017-09-26T14:23:06.215Z,18.27
2017-09-26T14:25:33.861Z,18.67
2017-09-26T14:28:01.472Z,18.33
2017-09-26T14:30:29.096Z,16.80
2017-09-26T14:32:56.738Z,17.70
2017-09-26T14:35:24.335Z,14.77
2017-09-26T14:37:51.956Z,17.13
2017-09-26T14:40:19.586Z,16.47
2017-09-26T14:42:47.952Z,17.40
2017-09-26T14:45:15.557Z,18.80
2017-09-26T14:47:43.192Z,16.70
2017-09-26T14:50:10.792Z,17.90
2017-09-26T14:52:38.397Z,17.40
2017-09-26T14:55:06.045Z,17.87
2017-09-26T14:57:33.653Z,17.70
2017-09-26T15:00:01.254Z,17.00
2017-09-26T15:02:29.655Z,18.20
2017-09-26T15:04:57.265Z,17.37
2017-09-26T15:07:24.861Z,17.10
2017-09-26T15:09:52.495Z,15.10
2017-09-26T15:12:20.326Z,16.90
2017-09-26T15:14:48.821Z,17.13
2017-09-26T15:17:16.553Z,16.97
2017-09-26T15:19:44.205Z,17.23
2017-09-26T15:22:11.808Z,17.10
2017-09-26T15:24:39.409Z,16.57
2017-09-26T15:27:07.037Z,17.80
2017-09-26T15:29:34.664Z,17.33
2017-09-26T15:32:02.273Z,17.93
2017-09-26T15:34:29.892Z,16.83
2017-09-26T15:36:58.281Z,17.60
2017-09-26T15:39:26.678Z,16.63
2017-09-26T15:41:54.280Z,16.37
2017-09-26T15:44:21.912Z,15.70
2017-09-26T15:46:49.515Z,16.20
2017-09-26T15:49:17.900Z,18.03
2017-09-26T15:51:45.532Z,17.20
2017-09-26T15:54:13.128Z,17.07
2017-09-26T15:56:40.764Z,17.07
2017-09-26T15:59:09.154Z,17.00
2017-09-26T16:01:36.764Z,16.40
2017-09-26T16:04:04.403Z,14.93
2017-09-26T16:06:32.762Z,15.50
2017-09-26T16:09:00.385Z,14.30
2017-09-26T16:11:27.988Z,16.40
2017-09-26T16:13:55.594Z,15.17
2017-09-26T16:16:25.594Z,13.37
2017-09-26T16:18:53.328Z,17.30
2017-09-26T16:21:20.933Z,14.57
2017-09-26T16:23:48.565Z,15.73
2017-09-26T16:26:16.933Z,16.30
2017-09-26T16:28:45.302Z,16.37
2017-09-26T16:31:13.069Z,16.63
2017-09-26T16:33:40.820Z,16.73
2017-09-26T16:36:08.653Z,18.87
2017-09-26T16:38:36.377Z,16.50
2017-09-26T16:41:04.897Z,16.40
2017-09-26T16:43:32.707Z,17.47
2017-09-26T16:46:00.513Z,16.40
2017-09-26T16:48:28.318Z,16.67
2017-09-26T16:50:56.184Z,16.10
2017-09-26T16:53:24.061Z,17.77
2017-09-26T16:55:52.324Z,16.73
2017-09-26T16:58:20.145Z,18.53
2017-09-26T17:00:47.958Z,15.83
2017-09-26T17:03:15.833Z,15.87
2017-09-26T17:05:43.695Z,19.57
2017-09-26T17:08:11.558Z,15.83
2017-09-26T17:10:39.434Z,17.70
2017-09-26T17:13:07.295Z,18.27
2017-09-26T17:15:35.872Z,19.53
2017-09-26T17:18:03.649Z,18.97
2017-09-26T17:20:31.417Z,20.80
2017-09-26T17:23:00.809Z,17.60
2017-09-26T17:25:28.675Z,20.43
2017-09-26T17:27:56.537Z,18.97
2017-09-26T17:30:24.400Z,19.90
2017-09-26T17:32:52.270Z,18.70
2017-09-26T17:35:20.038Z,21.23
2017-09-26T17:37:47.903Z,18.90
2017-09-26T17:40:15.767Z,18.63
2017-09-26T17:42:43.742Z,18.57
2017-09-26T17:45:11.601Z,19.10
2017-09-26T17:47:39.475Z,17.57
2017-09-26T17:50:07.347Z,16.10
2017-09-26T17:52:35.210Z,18.50
2017-09-26T17:55:03.080Z,19.90
2017-09-26T17:57:30.939Z,21.20
2017-09-26T17:59:59.214Z,19.93
2017-09-26T18:02:27.084Z,21.57
2017-09-26T18:04:55.055Z,19.23
2017-09-26T18:07:23.334Z,19.77
2017-09-26T18:09:51.190Z,20.03
2017-09-26T18:12:19.084Z,19.10
2017-09-26T18:14:46.892Z,18.40
2017-09-26T18:17:16.992Z,16.93
2017-09-26T18:19:47.591Z,20.27
2017-09-26T18:22:17.849Z,19.27
2017-09-26T18:24:47.707Z,19.10
2017-09-26T18:27:18.664Z,19.57
2017-09-26T18:29:49.410Z,16.47
2017-09-26T18:32:19.657Z,18.63
2017-09-26T18:34:49.729Z,20.40
2017-09-26T18:37:21.208Z,18.80
2017-09-26T18:39:51.499Z,15.67
2017-09-26T18:42:21.645Z,17.23
2017-09-26T18:44:51.606Z,19.00
2017-09-26T18:47:22.521Z,19.00
2017-09-26T18:49:52.432Z,17.53
2017-09-26T18:52:22.819Z,20.13
2017-09-26T18:54:53.551Z,19.70
2017-09-26T18:57:23.832Z,18.47
2017-09-26T18:59:54.541Z,18.30
2017-09-26T19:02:24.758Z,18.70
2017-09-26T19:04:54.848Z,20.47
2017-09-26T19:07:24.928Z,19.43
2017-09-26T19:09:54.941Z,22.00
2017-09-26T19:12:24.049Z,20.87
2017-09-26T19:14:51.649Z,20.07
2017-09-26T19:17:19.240Z,20.20
2017-09-26T19:19:47.654Z,20.13
2017-09-26T19:22:15.261Z,18.83
2017-09-26T19:24:45.123Z,18.53
2017-09-26T19:27:12.776Z,19.57
2017-09-26T19:29:40.368Z,20.53
2017-09-26T19:32:07.998Z,22.57
2017-09-26T19:34:35.629Z,19.97
2017-09-26T19:37:03.996Z,18.90
2017-09-26T19:39:31.591Z,19.20
2017-09-26T19:41:59.280Z,20.50
2017-09-26T19:44:26.905Z,20.17
2017-09-26T19:46:55.264Z,17.03
2017-09-26T19:49:22.893Z,17.93
2017-09-26T19:51:50.491Z,18.93
2017-09-26T19:54:18.958Z,16.73
2017-09-26T19:56:49.482Z,20.07
2017-09-26T19:59:17.259Z,21.40
2017-09-26T20:01:45.666Z,19.60
2017-09-26T20:04:13.261Z,20.47
2017-09-26T20:06:40.898Z,22.90
2017-09-26T20:09:08.509Z,19.17
2017-09-26T20:11:36.109Z,20.70
2017-09-26T20:14:03.728Z,18.17
2017-09-26T20:16:32.102Z,19.90
2017-09-26T20:18:59.736Z,19.50
2017-09-26T20:21:27.331Z,21.63
2017-09-26T20:23:54.932Z,17.07
2017-09-26T20:26:22.557Z,19.53
2017-09-26T20:28:50.153Z,19.53
2017-09-26T20:31:17.757Z,21.77
2017-09-26T20:33:45.393Z,19.83
2017-09-26T20:36:12.995Z,21.27
2017-09-26T20:38:40.741Z,17.87
2017-09-26T20:41:08.364Z,20.93
2017-09-26T20:43:35.968Z,20.37
2017-09-26T20:46:03.589Z,17.57
2017-09-26T20:48:31.185Z,19.57
2017-09-26T20:50:58.828Z,18.30
2017-09-26T20:53:26.429Z,19.83
2017-09-26T20:55:54.059Z,22.13
2017-09-26T20:58:21.661Z,19.07
2017-09-26T21:00:50.020Z,19.47
2017-09-26T21:03:17.912Z,17.20
2017-09-26T21:05:46.286Z,21.10
2017-09-26T21:08:14.643Z,16.00
2017-09-26T21:10:42.265Z,17.17
2017-09-26T21:13:09.881Z,18.33
2017-09-26T21:15:38.249Z,20.87
2017-09-26T21:18:06.620Z,21.93
2017-09-26T21:20:34.257Z,21.27
2017-09-26T21:23:01.857Z,22.87
2017-09-26T21:25:29.482Z,21.87
2017-09-26T21:27:57.080Z,22.70
2017-09-26T21:30:25.484Z,22.70
2017-09-26T21:32:53.080Z,22.37
2017-09-26T21:35:20.684Z,19.60
2017-09-26T21:37:49.141Z,18.93
2017-09-26T21:40:16.736Z,22.10
2017-09-26T21:42:45.140Z,24.30
2017-09-26T21:45:13.605Z,17.97
2017-09-26T21:47:41.205Z,18.87
2017-09-26T21:50:08.973Z,17.63
2017-09-26T21:52:36.580Z,22.30
2017-09-26T21:55:04.944Z,19.70
2017-09-26T21:57:32.568Z,23.50
2017-09-26T22:00:00.164Z,21.37
2017-09-26T22:02:27.798Z,23.20
2017-09-26T22:04:55.401Z,23.80
2017-09-26T22:07:23.815Z,25.20
2017-09-26T22:09:51.457Z,23.67
2017-09-26T22:12:19.821Z,22.57
2017-09-26T22:14:48.239Z,24.80
2017-09-26T22:17:15.833Z,22.67
2017-09-26T22:19:43.432Z,24.00
2017-09-26T22:22:11.054Z,23.13
2017-09-26T22:24:38.657Z,23.30
2017-09-26T22:27:06.294Z,23.00
2017-09-26T22:29:34.671Z,19.13
2017-09-26T22:32:03.072Z,19.30
2017-09-26T22:34:30.668Z,22.30
2017-09-26T22:36:58.267Z,17.40
2017-09-26T22:39:26.665Z,17.57
2017-09-26T22:41:55.037Z,20.17
2017-09-26T22:44:23.434Z,19.77
2017-09-26T22:46:51.070Z,16.30
2017-09-26T22:49:19.474Z,18.73
2017-09-26T22:51:47.074Z,21.80
2017-09-26T22:54:14.676Z,21.70
2017-09-26T22:56:43.069Z,20.90
2017-09-26T22:59:10.673Z,23.50
2017-09-26T23:01:38.312Z,25.13
2017-09-26T23:04:06.399Z,27.17
2017-09-26T23:06:34.013Z,23.07
2017-09-26T23:09:02.406Z,24.40
2017-09-26T23:11:30.005Z,23.90
2017-09-26T23:13:57.651Z,20.83
2017-09-26T23:16:25.259Z,25.37
2017-09-26T23:18:53.624Z,22.23
2017-09-26T23:21:21.561Z,25.60
2017-09-26T23:23:49.177Z,23.30
2017-09-26T23:26:17.539Z,22.40
2017-09-26T23:28:45.155Z,24.30
2017-09-26T23:31:12.767Z,24.50
2017-09-26T23:33:40.400Z,22.23
2017-09-26T23:36:07.996Z,20.33
2017-09-26T23:38:36.366Z,23.07
2017-09-26T23:41:05.065Z,24.47
2017-09-26T23:43:33.444Z,23.60
2017-09-26T23:46:01.851Z,23.07
2017-09-26T23:48:29.461Z,18.53
2017-09-26T23:50:57.069Z,24.00
2017-09-26T23:53:24.704Z,23.60
2017-09-26T23:55:53.077Z,23.50
2017-09-26T23:58:21.451Z,26.97
